Time;durP1;ratioP1;P1;durP2;ratioP2;P2;SDS_P1;SDS_P2;PMS_P1;PMS_P2;Temp;Humidity;BMP_temperature;BMP_pressure;BME280_temperature;BME280_humidity;BME280_pressure;Samples;Min_cycle;Max_cycle;Signal;HPM_P1;HPM_P2
2023/05/18 00:01:29;;;;;;;8.32;3.53;;;7.60;99.90;;;;;;5006350;28;90697;-31
2023/05/18 00:03:55;;;;;;;7.82;4.50;;;7.60;99.90;;;;;;5006707;28;90581;-34
2023/05/18 00:06:24;;;;;;;5.88;2.58;;;7.60;99.90;;;;;;5018286;27;90569;-35
2023/05/18 00:08:50;;;;;;;4.45;2.22;;;7.50;99.90;;;;;;5007424;28;89083;-31
2023/05/18 00:11:16;;;;;;;5.65;2.38;;;7.50;99.90;;;;;;5018955;27;90908;-31
2023/05/18 00:13:42;;;;;;;3.25;2.08;;;7.50;99.90;;;;;;5007278;28;91603;-33
2023/05/18 00:16:10;;;;;;;6.75;2.63;;;7.50;99.90;;;;;;5006451;27;89755;-36
2023/05/18 00:18:36;;;;;;;5.00;2.63;;;7.50;99.90;;;;;;5020375;27;89732;-33
2023/05/18 00:21:02;;;;;;;8.85;3.13;;;7.50;99.90;;;;;;5017856;28;90266;-31
2023/05/18 00:23:29;;;;;;;7.43;2.53;;;7.50;99.90;;;;;;5007228;28;89693;-33
2023/05/18 00:26:02;;;;;;;6.70;3.72;;;7.40;99.90;;;;;;5004917;27;89987;-33
2023/05/18 00:28:28;;;;;;;9.52;2.95;;;7.40;99.90;;;;;;4998253;28;89958;-33
2023/05/18 00:30:54;;;;;;;3.92;3.08;;;7.40;99.90;;;;;;5012399;28;90707;-32
2023/05/18 00:33:20;;;;;;;6.50;3.53;;;7.40;99.90;;;;;;4999183;28;89503;-35
2023/05/18 00:35:46;;;;;;;4.30;3.17;;;7.40;99.90;;;;;;4999590;28;89706;-31
2023/05/18 00:38:14;;;;;;;7.60;2.95;;;7.30;99.90;;;;;;4999991;28;87949;-32
2023/05/18 00:40:40;;;;;;;6.88;2.65;;;7.30;99.90;;;;;;4999453;28;91976;-33
2023/05/18 00:43:06;;;;;;;5.60;3.83;;;7.20;99.90;;;;;;4998831;28;90975;-35
2023/05/18 00:45:32;;;;;;;9.95;3.20;;;7.30;99.90;;;;;;5016752;28;90233;-31
2023/05/18 00:47:58;;;;;;;4.28;2.97;;;7.10;99.90;;;;;;5009554;28;89556;-31
2023/05/18 00:50:24;;;;;;;6.50;3.25;;;7.10;99.90;;;;;;4999499;28;89583;-33
2023/05/18 00:52:51;;;;;;;6.05;3.33;;;7.10;99.90;;;;;;5009441;28;89581;-32
2023/05/18 00:55:17;;;;;;;7.93;4.10;;;7.10;99.90;;;;;;5017247;27;90069;-32
2023/05/18 00:57:44;;;;;;;4.85;2.42;;;7.10;99.90;;;;;;5008606;28;89267;-34
2023/05/18 01:00:12;;;;;;;3.80;3.33;;;7.00;99.90;;;;;;5011771;28;91861;-32
2023/05/18 01:02:41;;;;;;;7.43;4.40;;;7.00;99.90;;;;;;4999325;28;91536;-31
2023/05/18 01:05:09;;;;;;;7.95;4.10;;;6.90;99.90;;;;;;5002575;28;88080;-36
2023/05/18 01:07:36;;;;;;;16.17;3.65;;;6.80;99.90;;;;;;5008211;28;90222;-32
2023/05/18 01:10:02;;;;;;;3.80;3.50;;;6.80;99.90;;;;;;4999274;28;90319;-37
2023/05/18 01:12:56;;;;;;;3.63;2.33;;;6.80;99.90;;;;;;4998439;28;90042;-31
2023/05/18 01:15:33;;;;;;;5.68;3.78;;;6.70;99.90;;;;;;4992295;28;89562;-31
2023/05/18 01:18:30;;;;;;;7.97;3.25;;;6.70;99.90;;;;;;4998816;28;89010;-33
2023/05/18 01:21:12;;;;;;;5.77;3.50;;;6.70;99.90;;;;;;4999267;28;90167;-35
2023/05/18 01:23:51;;;;;;;11.32;3.38;;;6.60;99.90;;;;;;4999131;28;89422;-31
2023/05/18 01:26:28;;;;;;;4.13;3.20;;;6.60;99.90;;;;;;4998210;28;90389;-33
2023/05/18 01:28:56;;;;;;;3.30;3.00;;;6.50;99.90;;;;;;4999417;28;89299;-35
2023/05/18 01:31:22;;;;;;;11.63;3.22;;;6.50;99.90;;;;;;4999232;28;90056;-30
2023/05/18 01:33:48;;;;;;;9.63;3.33;;;6.50;99.90;;;;;;4998259;28;90020;-35
2023/05/18 01:36:13;;;;;;;6.63;3.45;;;6.50;99.90;;;;;;4998918;28;90265;-31
2023/05/18 01:38:39;;;;;;;6.72;3.17;;;6.40;99.90;;;;;;4998936;28;90116;-34
2023/05/18 01:41:17;;;;;;;5.32;3.53;;;6.40;99.90;;;;;;4998390;28;90293;-32
2023/05/18 01:44:08;;;;;;;6.93;2.97;;;6.30;99.90;;;;;;4998635;28;90656;-36
2023/05/18 01:46:52;;;;;;;8.93;3.45;;;6.30;99.90;;;;;;4999758;28;90604;-34
2023/05/18 01:49:55;;;;;;;5.03;2.25;;;6.30;99.90;;;;;;4988580;28;89811;-31
2023/05/18 01:52:33;;;;;;;7.75;4.22;;;6.40;99.90;;;;;;5000650;28;91139;-33
2023/05/18 01:55:03;;;;;;;3.40;3.10;;;6.30;99.90;;;;;;4999449;28;90336;-34
2023/05/18 01:57:30;;;;;;;6.35;3.50;;;6.30;99.90;;;;;;4987827;28;89712;-32
2023/05/18 01:59:58;;;;;;;4.25;2.78;;;6.20;99.90;;;;;;4999340;28;88870;-34
2023/05/18 02:02:25;;;;;;;6.57;3.35;;;6.20;99.90;;;;;;5000221;28;90501;-35
2023/05/18 02:04:51;;;;;;;6.07;3.17;;;6.20;99.90;;;;;;5001295;28;89830;-33
2023/05/18 02:07:17;;;;;;;3.63;2.45;;;6.10;99.90;;;;;;5017495;28;89582;-35
2023/05/18 02:09:43;;;;;;;5.63;3.00;;;6.10;99.90;;;;;;5017057;28;89468;-35
2023/05/18 02:12:09;;;;;;;8.50;3.58;;;6.20;99.90;;;;;;5006717;28;89647;-33
2023/05/18 02:14:35;;;;;;;8.27;3.53;;;6.20;99.90;;;;;;5004096;27;89832;-34
2023/05/18 02:17:01;;;;;;;7.07;3.42;;;6.10;99.90;;;;;;5018699;28;90182;-34
2023/05/18 02:19:29;;;;;;;3.30;2.47;;;6.10;99.90;;;;;;5016728;28;88462;-34
2023/05/18 02:21:56;;;;;;;;;;;6.10;99.90;;;;;;5018521;27;89100;-32
2023/05/18 02:24:23;;;;;;;4.50;2.90;;;6.10;99.90;;;;;;5018737;28;89277;-34
2023/05/18 02:26:52;;;;;;;6.68;3.70;;;6.10;99.90;;;;;;5008876;28;88221;-32
2023/05/18 02:29:17;;;;;;;;;;;6.00;99.90;;;;;;4998606;28;90378;-30
2023/05/18 02:31:43;;;;;;;4.03;2.63;;;6.00;99.90;;;;;;4999483;28;89359;-33
2023/05/18 02:34:09;;;;;;;5.35;3.10;;;6.00;99.90;;;;;;5012704;28;90451;-31
2023/05/18 02:36:41;;;;;;;6.30;2.80;;;6.00;99.90;;;;;;5017055;27;90447;-34
2023/05/18 02:39:10;;;;;;;6.40;3.22;;;6.00;99.90;;;;;;5013686;28;88647;-35
2023/05/18 02:41:36;;;;;;;9.95;2.30;;;5.90;99.90;;;;;;5007174;28;90737;-34
2023/05/18 02:44:02;;;;;;;5.10;2.55;;;5.90;99.90;;;;;;5015914;28;90050;-32
2023/05/18 02:46:28;;;;;;;5.03;2.95;;;5.80;99.90;;;;;;5007095;28;89176;-35
2023/05/18 02:48:54;;;;;;;6.95;3.15;;;5.90;99.90;;;;;;5012899;28;90493;-32
2023/05/18 02:51:20;;;;;;;6.25;4.13;;;5.90;99.90;;;;;;5008495;28;89859;-37
2023/05/18 02:53:46;;;;;;;5.97;2.85;;;5.90;99.90;;;;;;5013461;28;91017;-34
2023/05/18 02:56:12;;;;;;;3.90;2.53;;;5.80;99.90;;;;;;5010015;28;89547;-31
2023/05/18 02:58:38;;;;;;;3.10;2.90;;;5.70;99.90;;;;;;5002904;27;89994;-31
2023/05/18 03:01:08;;;;;;;5.53;3.70;;;5.70;99.90;;;;;;5010562;28;89394;-32
2023/05/18 03:03:34;;;;;;;11.20;2.78;;;5.70;99.90;;;;;;5006880;27;89623;-33
2023/05/18 03:06:07;;;;;;;4.93;2.90;;;5.70;99.90;;;;;;5020245;28;88648;-33
2023/05/18 03:08:32;;;;;;;4.65;2.83;;;5.70;99.90;;;;;;5015433;27;90213;-32
2023/05/18 03:10:58;;;;;;;7.28;3.13;;;5.70;99.90;;;;;;5001435;28;90394;-37
2023/05/18 03:13:24;;;;;;;6.00;3.53;;;5.70;99.90;;;;;;5014073;28;89364;-32
2023/05/18 03:15:50;;;;;;;4.13;2.83;;;5.60;99.90;;;;;;5001033;28;89463;-32
2023/05/18 03:18:18;;;;;;;5.90;3.03;;;5.60;99.90;;;;;;5018813;28;89229;-31
2023/05/18 03:20:44;;;;;;;10.95;3.05;;;5.60;99.90;;;;;;5020221;27;90287;-31
2023/05/18 03:23:09;;;;;;;2.95;2.60;;;5.60;99.90;;;;;;5000801;27;90925;-32
2023/05/18 03:25:36;;;;;;;4.40;2.78;;;5.60;99.90;;;;;;5012893;28;89827;-33
2023/05/18 03:28:05;;;;;;;3.13;2.40;;;5.50;99.90;;;;;;5002485;28;88363;-32
2023/05/18 03:30:34;;;;;;;4.30;3.00;;;5.50;99.90;;;;;;4999889;28;90760;-34
2023/05/18 03:33:01;;;;;;;7.53;3.78;;;5.50;99.90;;;;;;5000017;28;89688;-36
2023/05/18 03:35:27;;;;;;;3.80;2.45;;;5.60;99.90;;;;;;5013401;28;89563;-34
2023/05/18 03:37:53;;;;;;;3.65;3.28;;;5.60;99.90;;;;;;5001037;28;89424;-31
2023/05/18 03:40:19;;;;;;;5.13;3.38;;;5.50;99.90;;;;;;5013525;28;90314;-34
2023/05/18 03:42:45;;;;;;;5.68;2.83;;;5.60;99.90;;;;;;5000879;28;89326;-32
2023/05/18 03:45:11;;;;;;;5.30;3.17;;;5.60;99.90;;;;;;5013687;28;89239;-33
2023/05/18 03:47:38;;;;;;;7.13;4.10;;;5.60;99.90;;;;;;4999914;28;90533;-36
2023/05/18 03:50:04;;;;;;;4.97;3.03;;;5.60;99.90;;;;;;5001035;28;90853;-33
2023/05/18 03:52:32;;;;;;;6.95;3.13;;;5.60;99.90;;;;;;5000635;28;91393;-33
2023/05/18 03:55:00;;;;;;;5.80;2.38;;;5.60;99.90;;;;;;5000690;28;89264;-34
2023/05/18 03:57:27;;;;;;;7.72;3.88;;;5.70;99.90;;;;;;5000536;28;89172;-32
2023/05/18 03:59:53;;;;;;;7.13;2.88;;;5.70;99.90;;;;;;5000596;28;90244;-32
2023/05/18 04:02:19;;;;;;;5.90;3.33;;;5.70;99.90;;;;;;4998880;28;90066;-33
2023/05/18 04:04:46;;;;;;;6.25;2.47;;;5.70;99.90;;;;;;5000180;28;89110;-33
2023/05/18 04:07:15;;;;;;;6.13;2.83;;;5.70;99.90;;;;;;5012847;27;88305;-35
2023/05/18 04:09:42;;;;;;;5.18;3.72;;;5.70;99.90;;;;;;4998823;28;89615;-31
2023/05/18 04:12:07;;;;;;;7.35;2.33;;;5.70;99.90;;;;;;4999150;28;90181;-33
2023/05/18 04:14:34;;;;;;;13.30;3.15;;;5.80;99.90;;;;;;5044631;22;90373;-37
2023/05/18 04:17:03;;;;;;;2.83;2.30;;;5.80;99.90;;;;;;5000900;28;88499;-34
2023/05/18 04:19:31;;;;;;;11.00;3.22;;;5.80;99.90;;;;;;5000011;28;90701;-32
2023/05/18 04:21:57;;;;;;;5.45;2.53;;;5.90;99.90;;;;;;4999625;28;90239;-35
2023/05/18 04:24:23;;;;;;;3.83;3.53;;;5.90;99.90;;;;;;4998057;28;89480;-33
2023/05/18 04:26:49;;;;;;;6.18;3.92;;;6.00;99.90;;;;;;5000340;28;89033;-31
2023/05/18 04:29:16;;;;;;;5.97;3.55;;;6.00;99.90;;;;;;4998502;28;90001;-30
2023/05/18 04:31:43;;;;;;;2.47;2.25;;;6.00;99.90;;;;;;5000322;28;88188;-36
2023/05/18 04:34:09;;;;;;;4.20;2.88;;;6.10;99.90;;;;;;4999726;28;90192;-33
2023/05/18 04:36:34;;;;;;;6.65;2.72;;;6.20;99.90;;;;;;4999691;28;90149;-31
2023/05/18 04:39:06;;;;;;;6.40;3.40;;;6.20;99.90;;;;;;4998652;28;89886;-34
2023/05/18 04:41:33;;;;;;;10.27;3.42;;;6.20;99.90;;;;;;4999547;28;90631;-36
2023/05/18 04:43:59;;;;;;;4.57;3.97;;;6.30;99.90;;;;;;4999273;28;89751;-33
2023/05/18 04:46:25;;;;;;;8.50;4.97;;;6.50;99.90;;;;;;4999195;28;88953;-31
2023/05/18 04:48:51;;;;;;;6.30;3.38;;;6.50;99.90;;;;;;4999479;28;88960;-35
2023/05/18 04:51:20;;;;;;;7.38;3.35;;;6.60;99.90;;;;;;4997845;28;89312;-31
2023/05/18 04:53:48;;;;;;;5.32;3.05;;;6.60;99.90;;;;;;4999251;28;90025;-32
2023/05/18 04:56:19;;;;;;;5.90;3.90;;;6.80;99.90;;;;;;4989056;28;88247;-33
2023/05/18 04:58:47;;;;;;;4.55;2.90;;;6.80;99.90;;;;;;4997416;28;90546;-34
2023/05/18 05:01:16;;;;;;;11.43;5.00;;;6.90;99.90;;;;;;4997786;28;91041;-34
2023/05/18 05:03:43;;;;;;;7.97;3.88;;;6.90;99.90;;;;;;4985818;28;90181;-32
2023/05/18 05:06:09;;;;;;;3.10;2.58;;;6.90;99.90;;;;;;4987202;28;89332;-34
2023/05/18 05:08:36;;;;;;;5.18;3.58;;;6.90;99.90;;;;;;4997862;28;90419;-34
2023/05/18 05:11:01;;;;;;;5.20;2.72;;;6.90;99.90;;;;;;4999224;28;88880;-32
2023/05/18 05:13:27;;;;;;;9.93;3.10;;;7.00;99.90;;;;;;4985721;28;89153;-33
2023/05/18 05:15:53;;;;;;;3.45;2.92;;;7.10;99.90;;;;;;4998546;28;89825;-31
2023/05/18 05:18:19;;;;;;;10.00;4.18;;;7.30;99.90;;;;;;4998146;28;90210;-37
2023/05/18 05:20:44;;;;;;;9.77;3.95;;;7.30;99.90;;;;;;4999097;28;89512;-31
2023/05/18 05:23:10;;;;;;;6.20;3.42;;;7.40;99.90;;;;;;4993429;28;88921;-32
2023/05/18 05:25:36;;;;;;;6.93;3.42;;;7.40;99.90;;;;;;4979614;28;90390;-34
2023/05/18 05:28:01;;;;;;;9.07;3.15;;;7.50;99.90;;;;;;4997355;28;88828;-34
2023/05/18 05:30:27;;;;;;;3.42;2.97;;;7.50;99.90;;;;;;4998461;28;89784;-33
2023/05/18 05:32:53;;;;;;;3.38;2.80;;;7.50;99.90;;;;;;4999342;28;89750;-34
2023/05/18 05:35:18;;;;;;;6.88;3.63;;;7.50;99.90;;;;;;4998294;28;88611;-31
2023/05/18 05:37:44;;;;;;;8.57;4.47;;;7.60;99.90;;;;;;4985560;28;90796;-33
2023/05/18 05:40:10;;;;;;;10.40;2.97;;;7.60;99.90;;;;;;4996909;28;89324;-33
2023/05/18 05:42:36;;;;;;;4.05;2.70;;;7.70;99.90;;;;;;4994017;28;89443;-31
2023/05/18 05:45:01;;;;;;;3.85;2.65;;;7.70;99.90;;;;;;4979819;28;90090;-31
2023/05/18 05:47:27;;;;;;;11.60;4.50;;;7.70;99.90;;;;;;4996804;28;90157;-36
2023/05/18 05:49:53;;;;;;;6.00;2.38;;;7.80;99.90;;;;;;4986243;28;90539;-30
2023/05/18 05:52:19;;;;;;;3.65;3.15;;;7.80;99.90;;;;;;4996389;28;90859;-35
2023/05/18 05:54:44;;;;;;;5.72;3.75;;;7.90;99.90;;;;;;4998994;28;88236;-34
2023/05/18 05:57:10;;;;;;;4.55;2.85;;;7.90;99.90;;;;;;4993291;28;89853;-33
2023/05/18 05:59:36;;;;;;;5.43;2.88;;;8.00;99.90;;;;;;4979242;28;89932;-32
2023/05/18 06:02:01;;;;;;;5.03;2.30;;;8.10;99.90;;;;;;4997020;28;90405;-31
2023/05/18 06:04:27;;;;;;;3.90;2.28;;;8.10;99.90;;;;;;4998183;28;88836;-34
2023/05/18 06:06:52;;;;;;;4.55;3.00;;;8.20;99.90;;;;;;4998313;28;90244;-31
2023/05/18 06:09:18;;;;;;;3.78;2.88;;;8.20;99.90;;;;;;4998406;28;89269;-35
2023/05/18 06:11:44;;;;;;;7.68;3.33;;;8.30;99.90;;;;;;4995294;28;90302;-31
2023/05/18 06:14:11;;;;;;;5.88;2.50;;;8.30;99.90;;;;;;4989937;28;89549;-32
2023/05/18 06:16:37;;;;;;;3.60;3.10;;;8.40;99.90;;;;;;4995423;28;88951;-34
2023/05/18 06:19:02;;;;;;;4.20;2.83;;;8.40;99.90;;;;;;4998767;28;89180;-31
2023/05/18 06:21:28;;;;;;;5.47;3.05;;;8.40;99.90;;;;;;4987846;28;90295;-31
2023/05/18 06:23:55;;;;;;;6.53;1.75;;;8.40;99.90;;;;;;4999804;28;89510;-37
2023/05/18 06:26:21;;;;;;;3.90;3.55;;;8.40;99.90;;;;;;4998713;28;90353;-32
2023/05/18 06:28:48;;;;;;;4.80;1.95;;;8.40;99.90;;;;;;5001315;28;89729;-34
2023/05/18 06:31:14;;;;;;;4.43;3.22;;;8.50;99.90;;;;;;5001719;28;89537;-36
2023/05/18 06:33:40;;;;;;;3.70;2.42;;;8.60;99.90;;;;;;5002296;28;88971;-31
2023/05/18 06:36:06;;;;;;;7.72;2.95;;;8.60;99.90;;;;;;5001651;28;90166;-32
2023/05/18 06:38:31;;;;;;;5.63;3.05;;;8.60;99.90;;;;;;5000909;28;90654;-34
2023/05/18 06:40:57;;;;;;;7.50;3.17;;;8.60;99.90;;;;;;4999750;28;90441;-32
2023/05/18 06:43:25;;;;;;;5.60;3.08;;;8.60;99.90;;;;;;4993445;28;87651;-35
2023/05/18 06:45:51;;;;;;;2.88;1.98;;;8.70;99.90;;;;;;5001289;28;90158;-34
2023/05/18 06:48:17;;;;;;;8.23;4.20;;;8.80;99.90;;;;;;5000547;28;89697;-35
2023/05/18 06:50:42;;;;;;;6.55;2.70;;;8.80;99.90;;;;;;5001770;28;89516;-33
2023/05/18 06:53:08;;;;;;;7.63;2.50;;;8.80;99.90;;;;;;4996905;28;89354;-33
2023/05/18 06:55:34;;;;;;;7.18;3.10;;;8.90;99.90;;;;;;4999758;28;89972;-33
2023/05/18 06:57:59;;;;;;;2.95;2.22;;;8.90;99.90;;;;;;4998679;28;89966;-34
2023/05/18 07:00:25;;;;;;;4.82;2.83;;;8.90;99.90;;;;;;4999164;28;89579;-29
2023/05/18 07:02:50;;;;;;;5.60;2.95;;;8.90;99.90;;;;;;4999596;28;90411;-34
2023/05/18 07:05:16;;;;;;;4.30;2.22;;;9.00;99.90;;;;;;4988126;28;88831;-32
2023/05/18 07:07:42;;;;;;;13.85;4.20;;;8.90;99.90;;;;;;5000670;28;89193;-34
2023/05/18 07:10:08;;;;;;;4.95;2.17;;;9.00;99.90;;;;;;5000134;28;90744;-33
2023/05/18 07:12:33;;;;;;;5.47;2.08;;;9.00;99.90;;;;;;5001139;28;88224;-32
2023/05/18 07:14:59;;;;;;;5.10;1.95;;;9.10;99.90;;;;;;5000804;28;90452;-34
2023/05/18 07:17:25;;;;;;;9.13;3.05;;;9.20;99.90;;;;;;5000281;28;89790;-33
2023/05/18 07:19:50;;;;;;;6.72;2.65;;;9.10;99.90;;;;;;5001120;28;89101;-31
2023/05/18 07:22:16;;;;;;;4.40;3.22;;;9.30;99.90;;;;;;5001517;28;88788;-32
2023/05/18 07:24:42;;;;;;;4.28;2.28;;;9.30;99.90;;;;;;4998168;28;90921;-31
2023/05/18 07:27:07;;;;;;;4.70;1.88;;;9.30;99.90;;;;;;4999813;28;89993;-32
2023/05/18 07:29:33;;;;;;;8.43;2.30;;;9.30;99.90;;;;;;4998921;28;90260;-31
2023/05/18 07:31:59;;;;;;;2.70;1.83;;;9.50;99.90;;;;;;4991704;28;88316;-34
2023/05/18 07:34:26;;;;;;;3.53;2.05;;;9.50;99.90;;;;;;4999078;28;90375;-33
2023/05/18 07:36:52;;;;;;;3.80;2.55;;;9.50;99.90;;;;;;4999833;28;88216;-35
2023/05/18 07:39:18;;;;;;;2.65;2.45;;;9.50;99.90;;;;;;4986485;28;90719;-32
2023/05/18 07:41:48;;;;;;;6.80;2.67;;;9.60;99.90;;;;;;4992771;28;89517;-31
2023/05/18 07:44:14;;;;;;;6.03;3.28;;;9.70;99.90;;;;;;4999981;28;89919;-34
2023/05/18 07:46:40;;;;;;;7.45;2.35;;;9.70;99.90;;;;;;5001011;28;90023;-31
2023/05/18 07:49:06;;;;;;;4.85;1.80;;;9.70;99.90;;;;;;4998817;28;89744;-35
2023/05/18 07:51:33;;;;;;;5.00;2.03;;;9.70;99.90;;;;;;5000191;28;88552;-32
2023/05/18 07:53:58;;;;;;;4.13;2.85;;;9.70;99.90;;;;;;4997061;28;89856;-34
2023/05/18 07:56:24;;;;;;;3.22;2.47;;;9.90;99.90;;;;;;4992253;28;88919;-33
2023/05/18 07:58:50;;;;;;;4.03;3.55;;;9.90;99.90;;;;;;4996224;28;90255;-32
2023/05/18 08:01:16;;;;;;;2.47;2.08;;;10.00;99.90;;;;;;4991170;28;88858;-32
2023/05/18 08:03:41;;;;;;;6.97;3.40;;;10.10;99.90;;;;;;4999504;28;90021;-33
2023/05/18 08:06:07;;;;;;;6.90;3.58;;;10.00;99.90;;;;;;4988236;28;89758;-31
2023/05/18 08:08:36;;;;;;;3.63;2.45;;;10.10;99.90;;;;;;4993382;28;89534;-32
2023/05/18 08:11:02;;;;;;;4.55;2.25;;;10.10;99.30;;;;;;4992869;28;88085;-34
2023/05/18 08:13:28;;;;;;;3.17;1.70;;;10.00;95.90;;;;;;4993496;28;90965;-32
2023/05/18 08:15:53;;;;;;;9.93;2.38;;;10.20;99.90;;;;;;4992069;28;91745;-32
2023/05/18 08:18:19;;;;;;;10.82;3.65;;;10.40;96.10;;;;;;4998859;28;90676;-35
2023/05/18 08:20:45;;;;;;;5.88;3.75;;;10.70;99.20;;;;;;5000027;28;88346;-32
2023/05/18 08:23:10;;;;;;;5.47;2.90;;;10.80;89.70;;;;;;4999357;28;89618;-32
2023/05/18 08:25:36;;;;;;;6.63;2.53;;;10.60;92.80;;;;;;5000221;28;89497;-33
2023/05/18 08:28:02;;;;;;;5.80;3.65;;;10.60;92.50;;;;;;4999197;28;90055;-31
2023/05/18 08:30:28;;;;;;;6.85;2.60;;;10.50;91.10;;;;;;4999128;28;90588;-35
2023/05/18 08:32:53;;;;;;;5.97;3.13;;;10.40;89.60;;;;;;4999213;28;90596;-31
2023/05/18 08:35:19;;;;;;;9.40;2.65;;;10.40;95.30;;;;;;4999216;28;89628;-36
2023/05/18 08:37:45;;;;;;;6.03;3.38;;;10.30;97.20;;;;;;4999631;28;89391;-33
2023/05/18 08:40:11;;;;;;;8.43;3.05;;;10.50;94.10;;;;;;4999538;28;88719;-34
2023/05/18 08:43:01;;;;;;;3.35;2.13;;;10.80;94.90;;;;;;4999061;28;90562;-35
2023/05/18 08:45:31;;;;;;;4.05;2.35;;;11.20;87.40;;;;;;4995894;28;89902;-35
2023/05/18 08:47:59;;;;;;;7.13;2.83;;;11.50;95.90;;;;;;4996118;28;91822;-35
2023/05/18 08:50:27;;;;;;;3.50;2.47;;;11.40;80.60;;;;;;4996012;28;89092;-34
2023/05/18 08:52:56;;;;;;;5.80;3.58;;;11.40;79.50;;;;;;4992222;28;90153;-32
2023/05/18 08:55:22;;;;;;;11.50;3.58;;;11.60;83.70;;;;;;4995233;28;89980;-35
2023/05/18 08:57:54;;;;;;;4.90;3.05;;;11.60;80.50;;;;;;4997517;28;89845;-33
2023/05/18 09:00:22;;;;;;;2.80;2.55;;;11.70;81.40;;;;;;4997320;28;89276;-33
2023/05/18 09:02:48;;;;;;;8.25;2.92;;;11.60;79.70;;;;;;4997319;28;89802;-33
2023/05/18 09:05:15;;;;;;;7.00;2.63;;;11.70;87.70;;;;;;4986205;28;90810;-32
2023/05/18 09:07:42;;;;;;;13.75;3.75;;;11.70;80.20;;;;;;4989028;28;90394;-31
2023/05/18 09:10:12;;;;;;;6.57;3.13;;;11.70;81.40;;;;;;4998112;28;90955;-34
2023/05/18 09:12:41;;;;;;;3.03;2.30;;;11.70;81.70;;;;;;4997149;28;90289;-35
2023/05/18 09:15:09;;;;;;;5.22;2.95;;;11.70;79.70;;;;;;4996564;28;89798;-34
2023/05/18 09:17:36;;;;;;;3.70;3.08;;;11.80;80.20;;;;;;4997819;28;89656;-34
2023/05/18 09:20:04;;;;;;;7.93;2.75;;;11.90;78.90;;;;;;4996935;28;89220;-32
2023/05/18 09:22:30;;;;;;;5.78;2.78;;;12.00;78.30;;;;;;4997162;28;90237;-34
2023/05/18 09:24:56;;;;;;;7.38;3.35;;;12.00;81.20;;;;;;4990464;28;90257;-31
2023/05/18 09:27:22;;;;;;;11.35;2.80;;;12.30;80.20;;;;;;4990353;28;89618;-31
2023/05/18 09:29:55;;;;;;;5.88;3.45;;;12.30;78.60;;;;;;4996882;28;89831;-35
2023/05/18 09:32:22;;;;;;;5.43;2.72;;;11.90;75.00;;;;;;4991745;28;90168;-32
2023/05/18 09:34:48;;;;;;;8.20;4.00;;;11.90;77.20;;;;;;4997525;28;89854;-33
2023/05/18 09:37:18;;;;;;;5.53;3.00;;;11.90;82.50;;;;;;4993155;28;89369;-31
2023/05/18 09:39:44;;;;;;;5.80;2.92;;;12.00;78.40;;;;;;4997011;28;89036;-33
2023/05/18 09:42:11;;;;;;;12.65;3.25;;;12.10;79.70;;;;;;4995714;28;89987;-32
2023/05/18 09:44:36;;;;;;;3.25;2.90;;;12.10;77.40;;;;;;4997052;28;89443;-34
2023/05/18 09:47:07;;;;;;;5.18;3.38;;;12.30;83.30;;;;;;4993972;28;91059;-32
2023/05/18 09:49:32;;;;;;;5.93;3.35;;;12.40;77.60;;;;;;4996706;28;89497;-32
2023/05/18 09:52:01;;;;;;;3.80;2.58;;;12.10;76.20;;;;;;4994159;28;90836;-35
2023/05/18 09:54:27;;;;;;;;;;;12.40;78.80;;;;;;4994791;28;90569;-35
2023/05/18 09:56:52;;;;;;;3.88;3.40;;;12.40;77.00;;;;;;4996128;28;89663;-32
2023/05/18 09:59:18;;;;;;;6.88;3.83;;;12.50;77.00;;;;;;4995050;28;90102;-32
2023/05/18 10:02:01;;;;;;;9.30;2.90;;;12.70;79.90;;;;;;4997484;28;90476;-32
2023/05/18 10:04:36;;;;;;;6.30;3.22;;;12.70;76.10;;;;;;4996999;28;90090;-34
2023/05/18 10:07:02;;;;;;;6.03;3.65;;;12.90;76.80;;;;;;4987394;28;89698;-31
2023/05/18 10:09:28;;;;;;;6.78;3.97;;;12.80;76.80;;;;;;4999962;28;87966;-33
2023/05/18 10:11:53;;;;;;;4.90;2.60;;;12.90;77.90;;;;;;5000137;28;90917;-34
2023/05/18 10:14:24;;;;;;;6.57;3.53;;;12.80;74.70;;;;;;4999043;28;89711;-34
2023/05/18 10:16:51;;;;;;;6.72;3.28;;;13.00;77.70;;;;;;4993902;28;89650;-31
2023/05/18 10:19:17;;;;;;;6.18;4.00;;;13.20;77.10;;;;;;4991105;28;88730;-33
2023/05/18 10:21:43;;;;;;;5.45;3.25;;;13.10;74.10;;;;;;4998715;28;90521;-35
2023/05/18 10:24:14;;;;;;;5.63;2.15;;;13.10;76.30;;;;;;4988453;28;89577;-31
2023/05/18 10:26:42;;;;;;;7.15;3.40;;;13.20;77.80;;;;;;4999221;28;89923;-35
2023/05/18 10:29:09;;;;;;;10.45;3.53;;;13.20;76.60;;;;;;4999320;28;89331;-32
2023/05/18 10:31:36;;;;;;;10.35;4.03;;;13.10;72.60;;;;;;4998732;28;90405;-34
2023/05/18 10:34:03;;;;;;;8.45;3.28;;;13.00;75.00;;;;;;4988825;28;89759;-35
2023/05/18 10:36:31;;;;;;;5.83;3.77;;;13.30;74.90;;;;;;4999267;28;88873;-36
2023/05/18 10:38:59;;;;;;;8.45;3.53;;;13.40;75.70;;;;;;4999644;28;89164;-32
2023/05/18 10:41:26;;;;;;;8.27;3.50;;;13.50;74.40;;;;;;4998735;28;90237;-33
2023/05/18 10:43:53;;;;;;;4.43;3.08;;;13.60;75.10;;;;;;4998331;28;90079;-35
2023/05/18 10:46:25;;;;;;;7.03;2.63;;;13.50;73.60;;;;;;4993834;28;90540;-33
2023/05/18 10:48:52;;;;;;;5.63;3.70;;;13.60;71.60;;;;;;4992133;28;88525;-34
2023/05/18 10:51:20;;;;;;;6.97;3.10;;;13.50;70.60;;;;;;4990903;28;90131;-32
2023/05/18 10:53:46;;;;;;;6.83;3.63;;;13.40;74.30;;;;;;4997209;28;91359;-32
2023/05/18 10:56:14;;;;;;;3.28;2.72;;;13.70;75.90;;;;;;4993092;28;89242;-32
2023/05/18 10:58:41;;;;;;;2.85;2.53;;;13.70;71.40;;;;;;4993863;28;89876;-35
2023/05/18 11:01:10;;;;;;;5.20;3.47;;;13.80;75.90;;;;;;4998821;28;90139;-31
2023/05/18 11:03:38;;;;;;;4.95;3.42;;;13.70;71.30;;;;;;4999051;28;90249;-32
2023/05/18 11:06:09;;;;;;;6.55;3.88;;;13.30;72.00;;;;;;4987661;28;90121;-32
2023/05/18 11:08:50;;;;;;;4.22;3.38;;;13.50;72.90;;;;;;4997913;28;88663;-34
2023/05/18 11:11:16;;;;;;;4.85;3.92;;;13.60;78.70;;;;;;4998336;28;89936;-36
2023/05/18 11:13:46;;;;;;;8.45;3.95;;;13.70;75.10;;;;;;4998217;28;90489;-32
2023/05/18 11:16:14;;;;;;;8.65;3.17;;;13.70;73.00;;;;;;4998954;28;90837;-32
2023/05/18 11:18:44;;;;;;;6.87;4.23;;;13.90;74.70;;;;;;4998856;28;88820;-33
2023/05/18 11:21:31;;;;;;;8.57;4.20;;;13.80;74.70;;;;;;4999030;28;91347;-32
2023/05/18 11:24:22;;;;;;;4.25;2.83;;;13.70;70.50;;;;;;4999488;28;89861;-34
2023/05/18 11:26:56;;;;;;;5.53;3.08;;;13.80;75.00;;;;;;4998870;28;90844;-31
2023/05/18 11:29:33;;;;;;;7.00;3.70;;;13.90;74.50;;;;;;4998613;28;89632;-34
2023/05/18 11:31:59;;;;;;;4.18;3.70;;;13.90;70.80;;;;;;4988096;28;90317;-34
2023/05/18 11:34:41;;;;;;;6.80;3.47;;;13.90;74.50;;;;;;4978842;28;90637;-32
2023/05/18 11:37:08;;;;;;;6.97;4.15;;;14.00;70.70;;;;;;4991969;28;91164;-36
2023/05/18 11:39:34;;;;;;;3.90;3.58;;;14.00;70.50;;;;;;4997557;28;89165;-34
2023/05/18 11:42:10;;;;;;;5.10;2.90;;;13.90;71.90;;;;;;4998590;28;90468;-31
2023/05/18 11:44:38;;;;;;;24.25;4.47;;;14.00;73.50;;;;;;4998614;28;89266;-34
2023/05/18 11:47:07;;;;;;;5.18;3.20;;;14.00;71.90;;;;;;4996258;28;89859;-35
2023/05/18 11:49:46;;;;;;;5.40;3.97;;;14.00;74.60;;;;;;4998874;28;89516;-34
2023/05/18 11:52:20;;;;;;;8.60;3.88;;;14.10;71.00;;;;;;4991569;28;91848;-31
2023/05/18 11:54:51;;;;;;;4.20;3.20;;;14.10;71.90;;;;;;4990872;28;88641;-34
2023/05/18 11:57:18;;;;;;;7.72;3.28;;;14.20;70.20;;;;;;4990316;28;89643;-31
2023/05/18 11:59:46;;;;;;;7.70;3.35;;;14.00;70.80;;;;;;4998414;28;88477;-33
2023/05/18 12:02:17;;;;;;;5.68;2.72;;;14.20;75.20;;;;;;4998076;28;90586;-35
2023/05/18 12:04:49;;;;;;;7.55;3.22;;;14.60;73.80;;;;;;4997970;28;90404;-32
2023/05/18 12:07:18;;;;;;;6.25;3.70;;;14.60;69.70;;;;;;4986018;28;89186;-31
2023/05/18 12:09:44;;;;;;;;;;;14.40;70.50;;;;;;4999272;28;90053;-31
2023/05/18 12:12:11;;;;;;;5.28;3.83;;;14.40;72.30;;;;;;4999686;28;90206;-34
2023/05/18 12:14:41;;;;;;;4.50;3.92;;;14.50;71.70;;;;;;4997713;28;90051;-30
2023/05/18 12:17:07;;;;;;;4.55;3.63;;;14.70;74.60;;;;;;4998504;28;89304;-35
2023/05/18 12:19:43;;;;;;;10.13;4.18;;;14.80;71.60;;;;;;4998023;28;88389;-36
2023/05/18 12:22:10;;;;;;;5.72;3.55;;;14.70;72.60;;;;;;4998262;28;90694;-33
2023/05/18 12:24:40;;;;;;;2.95;2.13;;;14.60;72.90;;;;;;4983611;28;90332;-34
2023/05/18 12:27:08;;;;;;;3.90;3.25;;;14.80;72.80;;;;;;4998159;28;90503;-37
2023/05/18 12:29:37;;;;;;;4.07;3.17;;;14.60;73.00;;;;;;4993640;28;88100;-34
2023/05/18 12:32:08;;;;;;;5.97;3.50;;;14.90;73.10;;;;;;4989733;28;89920;-33
2023/05/18 12:34:34;;;;;;;6.13;4.20;;;14.80;69.40;;;;;;4997981;28;90797;-33
2023/05/18 12:37:00;;;;;;;5.78;3.58;;;14.80;71.00;;;;;;4998008;28;89560;-32
2023/05/18 12:39:25;;;;;;;6.60;3.63;;;14.90;71.60;;;;;;4997842;28;89953;-31
2023/05/18 12:41:51;;;;;;;9.35;4.07;;;14.90;71.70;;;;;;4997669;28;89202;-36
2023/05/18 12:44:17;;;;;;;5.15;3.53;;;15.10;73.60;;;;;;4985047;28;89065;-33
2023/05/18 12:46:43;;;;;;;5.65;3.88;;;15.10;72.60;;;;;;4997621;28;89749;-34
2023/05/18 12:49:09;;;;;;;3.60;3.05;;;15.20;73.00;;;;;;4979349;28;88977;-33
2023/05/18 12:51:37;;;;;;;3.85;3.47;;;15.00;73.70;;;;;;4978747;28;90307;-32
2023/05/18 12:54:06;;;;;;;7.35;3.85;;;15.20;71.70;;;;;;4997162;28;89080;-33
2023/05/18 12:57:01;;;;;;;5.53;3.45;;;15.30;69.20;;;;;;4997456;28;90612;-34